Time;durP1;ratioP1;P1;durP2;ratioP2;P2;SDS_P1;SDS_P2;PMS_P1;PMS_P2;Temp;Humidity;BMP_temperature;BMP_pressure;BME280_temperature;BME280_humidity;BME280_pressure;Samples;Min_cycle;Max_cycle;Signal;HPM_P1;HPM_P2
2021/01/12 11:47:12;;;;;;;21.42;3.85;;;17.00;36.70;;;;;;5257439;23;20057;-76
2021/01/12 11:49:37;;;;;;;24.98;3.15;;;17.00;36.40;;;;;;4881968;29;20057;-76
2021/01/12 11:52:06;;;;;;;18.60;3.45;;;17.10;36.70;;;;;;4880283;29;20061;-77
2021/01/12 11:54:32;;;;;;;16.42;2.72;;;17.30;36.30;;;;;;4881375;29;20044;-77
2021/01/12 11:56:59;;;;;;;21.17;4.13;;;17.40;35.90;;;;;;4864304;29;20056;-77
2021/01/12 11:59:34;;;;;;;18.17;3.78;;;17.40;35.90;;;;;;4864652;29;20057;-76
2021/01/12 12:02:00;;;;;;;18.55;4.15;;;17.50;36.10;;;;;;4864943;29;20492;-77
2021/01/12 12:04:26;;;;;;;25.88;4.30;;;17.60;36.10;;;;;;4880323;29;20085;-77
2021/01/12 12:07:02;;;;;;;19.95;3.72;;;17.50;35.40;;;;;;4864817;29;20417;-77
2021/01/12 12:09:33;;;;;;;21.45;4.53;;;17.50;35.60;;;;;;4864742;29;20053;-78
2021/01/12 12:11:59;;;;;;;23.13;3.40;;;17.50;35.20;;;;;;4881328;29;20087;-77
2021/01/12 12:14:27;;;;;;;13.65;3.22;;;17.40;35.30;;;;;;4864265;29;20053;-79
2021/01/12 12:16:54;;;;;;;19.23;4.05;;;17.40;35.20;;;;;;4856737;29;20061;-77
2021/01/12 12:19:21;;;;;;;22.27;3.95;;;17.40;35.10;;;;;;4863876;29;20057;-77
2021/01/12 12:21:51;;;;;;;17.77;3.78;;;17.50;35.50;;;;;;4848446;29;20587;-77
2021/01/12 12:24:22;;;;;;;12.07;2.93;;;17.50;35.40;;;;;;4848570;29;20057;-77
2021/01/12 12:26:49;;;;;;;15.98;3.78;;;17.50;35.10;;;;;;4880845;29;20311;-77
2021/01/12 12:29:15;;;;;;;18.30;3.65;;;17.40;35.40;;;;;;4864308;29;20208;-77
2021/01/12 12:31:41;;;;;;;22.92;3.63;;;17.50;35.20;;;;;;4848739;29;20152;-77
2021/01/12 12:34:07;;;;;;;16.73;3.85;;;17.60;35.30;;;;;;4863759;29;20140;-77
2021/01/12 12:36:33;;;;;;;18.15;3.42;;;17.80;35.20;;;;;;4862526;29;20057;-77
2021/01/12 12:39:03;;;;;;;19.52;4.30;;;17.80;34.60;;;;;;4880362;29;20057;-77
2021/01/12 12:41:31;;;;;;;20.48;3.28;;;17.80;35.20;;;;;;4863634;29;20114;-76
2021/01/12 12:43:58;;;;;;;12.80;2.83;;;17.70;35.10;;;;;;4863525;29;20064;-77
2021/01/12 12:46:27;;;;;;;15.15;3.30;;;17.70;34.90;;;;;;4878840;29;20064;-77
2021/01/12 12:49:13;;;;;;;16.30;3.67;;;17.70;35.20;;;;;;4879511;29;20059;-77
2021/01/12 12:51:45;;;;;;;17.33;3.75;;;17.70;35.10;;;;;;4832792;29;20053;-77
2021/01/12 12:54:11;;;;;;;17.88;3.20;;;17.70;34.70;;;;;;4847074;29;20045;-77
2021/01/12 12:56:36;;;;;;;18.48;3.67;;;17.80;34.70;;;;;;4879738;29;20053;-77
2021/01/12 12:59:05;;;;;;;15.55;3.03;;;17.90;34.70;;;;;;4863541;29;20132;-77
2021/01/12 13:01:34;;;;;;;15.85;3.90;;;17.80;34.90;;;;;;4879943;29;20061;-77
2021/01/12 13:04:06;;;;;;;16.77;3.50;;;17.70;34.70;;;;;;4847506;29;20072;-77
2021/01/12 13:06:51;;;;;;;;;;;;;;;;;;;;;
2021/01/12 13:09:18;;;;;;;11.82;3.17;;;17.50;34.60;;;;;;4862951;29;20053;-78
2021/01/12 13:11:45;;;;;;;12.80;2.75;;;17.30;34.90;;;;;;4847641;29;20053;-78
2021/01/12 13:14:17;;;;;;;14.73;3.53;;;17.30;35.10;;;;;;4862924;29;20061;-77
2021/01/12 13:16:43;;;;;;;;;;;17.40;35.00;;;;;;4846944;29;20064;-77
2021/01/12 13:19:16;;;;;;;15.20;2.60;;;17.50;35.30;;;;;;4847790;29;19920;-77
2021/01/12 13:21:58;;;;;;;12.35;3.22;;;17.70;35.40;;;;;;4862977;29;20085;-78
2021/01/12 13:24:43;;;;;;;8.32;2.10;;;17.80;35.40;;;;;;4862695;29;20057;-76
2021/01/12 13:27:10;;;;;;;14.52;3.22;;;18.00;35.10;;;;;;4879781;29;20057;-77
2021/01/12 13:29:35;;;;;;;16.00;2.83;;;18.10;35.60;;;;;;4879493;29;20073;-77
2021/01/12 13:32:11;;;;;;;14.25;3.45;;;18.00;35.10;;;;;;4879091;29;20056;-77
2021/01/12 13:34:37;;;;;;;12.98;2.97;;;17.70;36.00;;;;;;4879586;29;20057;-77
2021/01/12 13:37:06;;;;;;;11.07;3.08;;;17.70;36.50;;;;;;4877908;29;20942;-78
2021/01/12 13:39:35;;;;;;;18.92;3.40;;;17.90;36.50;;;;;;4878607;29;20151;-77
2021/01/12 13:42:04;;;;;;;15.55;3.38;;;18.20;36.70;;;;;;4879445;29;20084;-77
2021/01/12 13:44:30;;;;;;;17.77;3.08;;;18.40;36.50;;;;;;4861735;29;20421;-78
2021/01/12 13:47:02;;;;;;;13.65;3.05;;;18.50;36.00;;;;;;4879437;29;20057;-78
2021/01/12 13:49:28;;;;;;;18.02;3.10;;;18.50;36.20;;;;;;4862982;29;20409;-78
2021/01/12 13:51:54;;;;;;;12.10;2.78;;;18.60;36.30;;;;;;4879375;29;20053;-77
2021/01/12 13:54:22;;;;;;;19.92;3.80;;;18.60;36.20;;;;;;4847254;29;20123;-78
2021/01/12 13:56:59;;;;;;;9.57;2.17;;;18.70;36.40;;;;;;4878990;29;20056;-78
2021/01/12 13:59:27;;;;;;;15.23;3.33;;;18.70;36.30;;;;;;4879049;29;20420;-77
2021/01/12 14:02:01;;;;;;;16.85;3.40;;;18.70;36.30;;;;;;4877818;29;20056;-78
2021/01/12 14:04:35;;;;;;;14.20;2.88;;;18.60;36.50;;;;;;4861266;29;20044;-78
2021/01/12 14:07:02;;;;;;;9.20;2.85;;;18.40;37.60;;;;;;4862346;29;20130;-78
2021/01/12 14:09:28;;;;;;;11.45;3.45;;;18.40;37.10;;;;;;4847183;29;20565;-77
2021/01/12 14:11:57;;;;;;;17.05;3.55;;;18.50;37.20;;;;;;4879014;29;20478;-77
2021/01/12 14:14:23;;;;;;;10.25;2.47;;;18.50;37.20;;;;;;4878791;29;20041;-77
2021/01/12 14:17:12;;;;;;;9.85;2.40;;;18.60;37.20;;;;;;4862302;29;20053;-77
2021/01/12 14:19:48;;;;;;;16.70;3.10;;;18.70;37.20;;;;;;4848073;29;20509;-77
2021/01/12 14:22:20;;;;;;;11.73;2.95;;;18.80;36.80;;;;;;4878858;29;20069;-77
2021/01/12 14:24:49;;;;;;;11.68;2.60;;;18.90;36.80;;;;;;4862165;29;20053;-77
2021/01/12 14:27:23;;;;;;;11.95;3.10;;;19.00;36.80;;;;;;4846677;29;20147;-78
2021/01/12 14:29:59;;;;;;;10.43;3.50;;;19.10;36.80;;;;;;4847063;29;20080;-77
2021/01/12 14:32:25;;;;;;;32.97;5.57;;;19.10;36.70;;;;;;4846938;29;20063;-78
2021/01/12 14:34:51;;;;;;;40.20;5.70;;;19.10;36.80;;;;;;4862177;29;20463;-78
2021/01/12 14:37:22;;;;;;;28.48;4.72;;;19.00;36.90;;;;;;4861417;29;20109;-78
2021/01/12 14:43:08;;;;;;;18.13;3.97;;;19.00;36.80;;;;;;4860639;29;20423;-78
2021/01/12 14:45:39;;;;;;;15.27;3.47;;;19.10;37.00;;;;;;4878498;29;20060;-77
2021/01/12 14:48:05;;;;;;;18.83;3.97;;;19.00;37.20;;;;;;4861717;29;20064;-78
2021/01/12 14:50:32;;;;;;;19.80;4.32;;;18.90;37.50;;;;;;4878516;29;20071;-78
2021/01/12 14:53:02;;;;;;;19.75;3.97;;;18.80;37.50;;;;;;4846440;29;20099;-77
2021/01/12 14:55:38;;;;;;;11.82;3.47;;;18.80;38.30;;;;;;4847510;29;20401;-77
2021/01/12 14:58:04;;;;;;;13.00;3.28;;;18.80;37.70;;;;;;4878256;29;20421;-77
2021/01/12 15:00:30;;;;;;;19.00;3.63;;;18.80;37.70;;;;;;4878655;29;20057;-76
2021/01/12 15:02:58;;;;;;;22.30;3.85;;;18.80;37.70;;;;;;4861893;29;20140;-76
2021/01/12 15:06:18;;;;;;;;;;;;;;;;;;;;;
2021/01/12 15:08:47;;;;;;;11.63;3.33;;;18.80;38.00;;;;;;4784529;29;20480;-78
2021/01/12 15:11:23;;;;;;;16.02;3.30;;;18.80;37.80;;;;;;4785416;29;20497;-78
2021/01/12 15:13:57;;;;;;;5.97;2.65;;;18.80;37.80;;;;;;4826795;29;20152;-77
2021/01/12 15:16:25;;;;;;;13.55;3.47;;;18.70;37.80;;;;;;4858997;29;20064;-78
2021/01/12 15:18:58;;;;;;;12.18;3.08;;;18.70;38.10;;;;;;4863230;29;20053;-77
2021/01/12 15:21:27;;;;;;;9.82;2.47;;;18.60;38.00;;;;;;4861768;29;20137;-78
2021/01/12 15:23:53;;;;;;;8.75;2.80;;;18.20;38.00;;;;;;4861418;29;20084;-78
2021/01/12 15:26:22;;;;;;;8.07;2.20;;;18.10;38.60;;;;;;4861418;29;20064;-79
2021/01/12 15:28:48;;;;;;;11.82;2.22;;;18.10;38.60;;;;;;4860923;29;20175;-78
2021/01/12 15:31:15;;;;;;;10.23;2.20;;;18.00;38.60;;;;;;4877231;29;20074;-77
2021/01/12 15:33:42;;;;;;;5.85;2.00;;;17.80;38.80;;;;;;4846118;29;20148;-77
2021/01/12 15:36:19;;;;;;;10.38;2.58;;;17.80;38.40;;;;;;4878325;29;20385;-78
2021/01/12 15:38:44;;;;;;;7.45;2.15;;;17.70;38.80;;;;;;4878240;29;20508;-77
2021/01/12 15:41:10;;;;;;;8.35;2.40;;;17.70;38.50;;;;;;4861511;29;20053;-77
2021/01/12 15:43:37;;;;;;;5.78;2.20;;;17.80;38.60;;;;;;4861302;29;20057;-78
2021/01/12 15:46:04;;;;;;;13.07;2.17;;;17.80;38.10;;;;;;4845825;29;20061;-77
2021/01/12 15:48:32;;;;;;;8.60;2.17;;;17.80;38.30;;;;;;4845804;29;20053;-78
2021/01/12 15:50:58;;;;;;;3.90;1.50;;;18.00;38.30;;;;;;4878180;29;20057;-80
2021/01/12 15:53:24;;;;;;;7.80;1.83;;;18.20;37.60;;;;;;4876640;29;20421;-79
2021/01/12 15:55:50;;;;;;;5.72;1.83;;;18.20;37.60;;;;;;4843958;29;20129;-79
2021/01/12 15:58:16;;;;;;;8.45;1.73;;;18.10;37.40;;;;;;4844611;29;20063;-79
2021/01/12 16:00:44;;;;;;;3.90;1.30;;;17.90;37.40;;;;;;4876847;29;20987;-78
2021/01/12 16:03:10;;;;;;;9.15;1.88;;;18.00;37.80;;;;;;4877998;29;20061;-79
2021/01/12 16:05:36;;;;;;;3.88;1.35;;;18.10;38.00;;;;;;4859585;29;20060;-76
2021/01/12 16:08:03;;;;;;;6.18;2.03;;;18.20;37.30;;;;;;4846303;29;20412;-78
2021/01/12 16:10:33;;;;;;;3.28;1.77;;;18.30;37.30;;;;;;4861061;29;20458;-79
2021/01/12 16:13:01;;;;;;;4.63;1.38;;;18.50;37.40;;;;;;4861257;29;20069;-78
2021/01/12 16:15:43;;;;;;;5.32;1.20;;;18.60;37.10;;;;;;4877117;29;20465;-79
2021/01/12 16:18:14;;;;;;;4.60;1.55;;;18.70;36.80;;;;;;4846530;29;20053;-79
2021/01/12 16:20:40;;;;;;;3.67;1.15;;;18.70;36.70;;;;;;4861428;29;20159;-78
2021/01/12 16:23:07;;;;;;;3.42;1.40;;;18.80;36.40;;;;;;4876375;29;20057;-79
2021/01/12 16:25:46;;;;;;;6.68;2.20;;;18.80;36.60;;;;;;4844082;29;20045;-78
2021/01/12 16:28:18;;;;;;;3.97;1.60;;;18.90;36.60;;;;;;4846467;29;20057;-78
2021/01/12 16:30:44;;;;;;;7.80;1.67;;;18.90;36.50;;;;;;4864168;29;20053;-78
2021/01/12 16:33:24;;;;;;;5.20;1.73;;;19.00;36.40;;;;;;4847107;29;20056;-78
2021/01/12 16:35:56;;;;;;;5.35;1.77;;;19.00;36.30;;;;;;4847633;29;20045;-79
2021/01/12 16:38:25;;;;;;;7.72;2.08;;;19.10;36.20;;;;;;4833209;29;20070;-79
2021/01/12 16:40:52;;;;;;;5.47;1.73;;;19.10;36.40;;;;;;4863840;29;20072;-79
2021/01/12 16:43:20;;;;;;;5.95;1.58;;;19.10;36.50;;;;;;4848891;29;20105;-79
2021/01/12 16:45:56;;;;;;;7.10;1.80;;;19.20;36.60;;;;;;4848485;29;20446;-79
2021/01/12 16:48:47;;;;;;;9.98;1.70;;;19.30;36.50;;;;;;4848342;29;20064;-79
2021/01/12 16:51:13;;;;;;;5.40;1.77;;;19.40;36.40;;;;;;4833727;29;20919;-79
2021/01/12 16:54:02;;;;;;;7.50;2.08;;;19.40;36.30;;;;;;4845277;29;20049;-79
2021/01/12 16:56:35;;;;;;;6.75;1.63;;;19.50;36.30;;;;;;4848196;29;20420;-79
2021/01/12 16:59:02;;;;;;;8.32;1.85;;;19.60;36.40;;;;;;4863698;29;20113;-78
2021/01/12 17:01:43;;;;;;;3.85;1.55;;;19.50;36.30;;;;;;4879221;29;20107;-78
2021/01/12 17:04:13;;;;;;;7.65;1.80;;;19.60;36.30;;;;;;4863069;29;20061;-78
2021/01/12 17:06:40;;;;;;;4.00;1.70;;;19.60;36.30;;;;;;4863505;29;20479;-78
2021/01/12 17:09:06;;;;;;;5.38;1.45;;;19.60;36.30;;;;;;4863647;29;20061;-78
2021/01/12 17:11:39;;;;;;;4.65;1.60;;;19.70;36.40;;;;;;4863981;29;20064;-78
2021/01/12 17:14:09;;;;;;;4.40;2.03;;;19.70;36.40;;;;;;4846436;29;20057;-78
2021/01/12 17:16:36;;;;;;;3.78;1.50;;;19.60;36.30;;;;;;4863095;29;20064;-78
2021/01/12 17:19:03;;;;;;;5.90;1.92;;;19.70;36.50;;;;;;4848493;29;20504;-77
2021/01/12 17:21:47;;;;;;;5.22;1.70;;;19.60;36.40;;;;;;4863213;29;20149;-78
2021/01/12 17:24:22;;;;;;;3.35;1.63;;;19.70;36.50;;;;;;4848671;29;20052;-78
2021/01/12 17:26:51;;;;;;;5.82;2.10;;;19.70;36.50;;;;;;4832756;29;20061;-78
2021/01/12 17:29:24;;;;;;;4.63;1.40;;;19.70;36.60;;;;;;4878313;29;20059;-78
2021/01/12 17:31:57;;;;;;;4.60;1.63;;;19.70;36.60;;;;;;4880150;29;20489;-78
2021/01/12 17:34:23;;;;;;;9.00;1.77;;;19.70;36.60;;;;;;4863343;29;20059;-78
2021/01/12 17:36:55;;;;;;;7.80;1.92;;;19.60;36.60;;;;;;4847897;29;20057;-78
2021/01/12 17:39:51;;;;;;;4.63;1.58;;;19.60;36.60;;;;;;4879526;29;20063;-77
2021/01/12 17:42:25;;;;;;;;;;;19.60;36.70;;;;;;4861404;29;20061;-77
2021/01/12 17:44:52;;;;;;;8.05;2.15;;;19.70;36.80;;;;;;4862787;29;19926;-78
2021/01/12 17:47:19;;;;;;;7.45;2.38;;;19.60;36.80;;;;;;4847335;29;21067;-77
2021/01/12 17:49:50;;;;;;;8.32;2.97;;;19.60;36.80;;;;;;4866508;29;20053;-77
2021/01/12 17:52:20;;;;;;;6.32;2.28;;;19.70;36.80;;;;;;4847862;29;20053;-78
2021/01/12 17:54:52;;;;;;;5.88;1.98;;;19.60;36.80;;;;;;4848013;29;20501;-78
2021/01/12 17:57:25;;;;;;;10.70;2.95;;;19.60;36.80;;;;;;4848088;29;20132;-78
2021/01/12 17:59:53;;;;;;;5.75;1.70;;;19.60;36.80;;;;;;4878109;29;20057;-77
2021/01/12 18:02:39;;;;;;;7.00;2.17;;;19.60;36.90;;;;;;4849718;29;20053;-78
2021/01/12 18:05:11;;;;;;;6.65;2.40;;;19.60;36.90;;;;;;4877881;29;20076;-76
2021/01/12 18:07:56;;;;;;;10.90;2.47;;;19.60;36.90;;;;;;4862630;29;20144;-76
2021/01/12 18:10:24;;;;;;;8.60;2.75;;;19.60;36.90;;;;;;4845869;29;20099;-77
2021/01/12 18:12:53;;;;;;;8.55;2.00;;;19.60;36.90;;;;;;4840270;29;692190;-78
2021/01/12 18:15:20;;;;;;;9.00;2.80;;;19.70;37.00;;;;;;4879905;29;20389;-77
2021/01/12 18:17:50;;;;;;;7.32;2.55;;;19.70;37.00;;;;;;4849899;29;20029;-77
2021/01/12 18:20:16;;;;;;;7.95;2.60;;;19.60;37.00;;;;;;4864135;29;20067;-77
2021/01/12 18:22:43;;;;;;;9.35;2.30;;;19.60;37.00;;;;;;4864051;29;20033;-77
2021/01/12 18:25:20;;;;;;;7.72;2.50;;;19.60;37.10;;;;;;4864151;29;20465;-78
2021/01/12 18:27:49;;;;;;;10.18;2.75;;;19.60;37.10;;;;;;4879962;29;20025;-77
2021/01/12 18:30:18;;;;;;;10.02;2.50;;;19.60;37.20;;;;;;4863997;29;20025;-77
2021/01/12 18:32:52;;;;;;;6.22;2.38;;;19.60;37.20;;;;;;4850161;29;20024;-77
2021/01/12 18:35:19;;;;;;;9.95;2.83;;;19.50;37.20;;;;;;4864414;29;20041;-77
2021/01/12 18:37:52;;;;;;;6.32;1.95;;;19.60;37.20;;;;;;4863875;29;20377;-77
2021/01/12 18:40:20;;;;;;;7.18;2.42;;;19.60;37.20;;;;;;4849293;29;20033;-77
2021/01/12 18:42:54;;;;;;;6.40;2.05;;;19.50;37.20;;;;;;4881047;29;20112;-77
2021/01/12 18:45:20;;;;;;;6.68;2.20;;;19.50;37.30;;;;;;4863658;29;20045;-77
2021/01/12 18:48:06;;;;;;;8.98;2.03;;;19.50;37.30;;;;;;4866118;29;20052;-77
2021/01/12 18:50:35;;;;;;;8.10;2.00;;;19.50;37.30;;;;;;4863167;29;20093;-77
2021/01/12 18:53:04;;;;;;;6.20;2.10;;;19.50;37.30;;;;;;4863690;29;20075;-77
2021/01/12 18:55:34;;;;;;;7.50;1.73;;;19.50;37.30;;;;;;4863577;29;20092;-77
2021/01/12 18:58:03;;;;;;;6.05;1.83;;;19.50;37.30;;;;;;4848490;29;20061;-77
2021/01/12 19:00:47;;;;;;;5.25;1.70;;;19.50;37.30;;;;;;4864076;29;20025;-77
2021/01/12 19:03:12;;;;;;;6.28;2.03;;;19.50;37.40;;;;;;4863827;29;20029;-77
2021/01/12 19:05:42;;;;;;;7.45;1.88;;;19.50;37.40;;;;;;4863325;29;20040;-78
2021/01/12 19:08:09;;;;;;;4.60;2.17;;;19.50;37.40;;;;;;4880120;29;20021;-77
2021/01/12 19:10:39;;;;;;;3.97;1.80;;;19.50;37.40;;;;;;4848277;29;20381;-77
2021/01/12 19:13:05;;;;;;;6.53;2.35;;;19.50;37.40;;;;;;4879696;29;20061;-77
2021/01/12 19:15:32;;;;;;;5.80;1.88;;;19.50;37.40;;;;;;4862850;29;20410;-77
2021/01/12 19:18:00;;;;;;;7.10;1.80;;;19.40;37.40;;;;;;4878229;29;20072;-77
2021/01/12 19:20:28;;;;;;;6.35;2.00;;;19.50;37.40;;;;;;4862975;29;20090;-77
2021/01/12 19:22:54;;;;;;;9.70;2.63;;;19.40;37.30;;;;;;4862788;29;20064;-77
2021/01/12 19:25:20;;;;;;;5.85;1.58;;;19.40;37.40;;;;;;4878810;29;20049;-77
2021/01/12 19:27:46;;;;;;;6.43;1.65;;;19.40;37.30;;;;;;4863195;29;20092;-77
2021/01/12 19:30:12;;;;;;;6.57;2.17;;;19.40;37.40;;;;;;4862752;29;20073;-76
2021/01/12 19:32:50;;;;;;;8.23;1.90;;;19.40;37.50;;;;;;4847290;29;20089;-76
2021/01/12 19:35:19;;;;;;;4.07;2.05;;;19.40;37.50;;;;;;4863089;29;20136;-76
2021/01/12 19:37:45;;;;;;;3.67;1.92;;;19.40;37.50;;;;;;4862709;29;20085;-76
2021/01/12 19:40:11;;;;;;;3.72;1.88;;;19.40;38.10;;;;;;4862650;29;20096;-77
2021/01/12 19:42:37;;;;;;;4.60;1.90;;;19.40;37.60;;;;;;4862937;29;20076;-77
2021/01/12 19:45:03;;;;;;;4.72;1.77;;;19.40;37.60;;;;;;4879620;29;20049;-77
2021/01/12 19:47:29;;;;;;;4.85;1.52;;;19.30;37.60;;;;;;4847092;29;20084;-77
2021/01/12 19:49:54;;;;;;;4.38;1.52;;;19.30;37.60;;;;;;4878031;29;20100;-77
2021/01/12 19:52:25;;;;;;;5.20;1.85;;;19.30;37.60;;;;;;4878103;29;20494;-77
2021/01/12 19:54:51;;;;;;;4.60;1.85;;;19.30;37.70;;;;;;4862935;29;20197;-77
2021/01/12 19:57:16;;;;;;;5.72;1.77;;;19.30;37.70;;;;;;4879592;29;20069;-77
2021/01/12 19:59:42;;;;;;;4.82;1.60;;;19.30;37.70;;;;;;4878171;29;20053;-77
2021/01/12 20:02:09;;;;;;;6.15;2.03;;;19.20;37.70;;;;;;4878714;29;20096;-77
2021/01/12 20:04:36;;;;;;;5.53;1.52;;;19.20;37.80;;;;;;4850667;29;20053;-77
2021/01/12 20:07:02;;;;;;;4.88;1.83;;;19.20;37.80;;;;;;4882710;29;20061;-77
2021/01/12 20:09:28;;;;;;;7.43;2.15;;;19.20;37.70;;;;;;4866323;29;20060;-77
2021/01/12 20:12:00;;;;;;;3.05;1.58;;;19.20;37.80;;;;;;4866177;29;20405;-77
2021/01/12 20:14:27;;;;;;;2.63;1.25;;;19.20;37.90;;;;;;4883314;29;20111;-77
2021/01/12 20:16:53;;;;;;;6.90;1.83;;;19.20;37.80;;;;;;4866049;29;20109;-77
2021/01/12 20:19:26;;;;;;;4.43;1.40;;;19.20;37.90;;;;;;4850169;29;20061;-77
2021/01/12 20:21:59;;;;;;;6.30;2.05;;;19.20;37.90;;;;;;4866221;29;20057;-76
2021/01/12 20:24:33;;;;;;;2.78;1.30;;;19.10;37.80;;;;;;4850647;29;20053;-76
2021/01/12 20:27:04;;;;;;;4.97;1.52;;;19.10;37.90;;;;;;4865704;29;20516;-77
2021/01/12 20:29:30;;;;;;;;;;;19.20;37.90;;;;;;4882548;29;20135;-77
2021/01/12 20:31:57;;;;;;;3.83;1.60;;;19.20;37.90;;;;;;4866996;29;19926;-76
2021/01/12 20:34:24;;;;;;;4.90;1.67;;;19.20;37.80;;;;;;4881400;29;20139;-77
2021/01/12 20:36:53;;;;;;;3.53;1.83;;;19.20;37.90;;;;;;4865571;29;20059;-77
2021/01/12 20:39:19;;;;;;;4.93;1.50;;;19.20;37.80;;;;;;4864471;29;20061;-77
2021/01/12 20:41:47;;;;;;;4.97;1.58;;;19.20;37.90;;;;;;4865665;29;20056;-77
2021/01/12 20:44:18;;;;;;;8.10;1.75;;;19.20;37.90;;;;;;4850209;29;20057;-77
2021/01/12 20:46:45;;;;;;;;;;;19.20;37.90;;;;;;4866221;29;20049;-77
2021/01/12 20:49:13;;;;;;;5.57;1.63;;;19.20;37.90;;;;;;4882118;29;19919;-77
2021/01/12 20:51:41;;;;;;;5.90;1.65;;;19.20;37.70;;;;;;4880641;29;20049;-77
2021/01/12 20:54:11;;;;;;;3.45;1.58;;;19.20;37.90;;;;;;4865338;29;20064;-77
2021/01/12 20:56:38;;;;;;;5.60;1.65;;;19.20;37.90;;;;;;4849675;29;20065;-77
2021/01/12 20:59:05;;;;;;;2.63;1.20;;;19.20;37.90;;;;;;4846695;29;20061;-77
2021/01/12 21:01:33;;;;;;;2.65;1.25;;;19.20;37.90;;;;;;4849061;29;20071;-77
2021/01/12 21:03:59;;;;;;;5.03;1.50;;;19.20;37.90;;;;;;4846548;29;20064;-77
2021/01/12 21:06:25;;;;;;;4.38;1.75;;;19.20;37.90;;;;;;4876490;29;20053;-77
2021/01/12 21:08:50;;;;;;;3.08;1.48;;;19.20;37.90;;;;;;4863375;29;20520;-77
2021/01/12 21:11:16;;;;;;;4.30;1.80;;;19.20;37.90;;;;;;4881542;29;20128;-76
2021/01/12 21:13:41;;;;;;;5.55;1.25;;;19.20;37.90;;;;;;4879640;29;20064;-76
2021/01/12 21:16:07;;;;;;;4.70;1.50;;;19.20;37.80;;;;;;4865267;29;20082;-77
2021/01/12 21:18:33;;;;;;;4.75;1.52;;;19.20;37.90;;;;;;4880055;29;20068;-76
2021/01/12 21:20:58;;;;;;;4.50;2.15;;;19.20;37.90;;;;;;4865515;29;20509;-77
2021/01/12 21:23:24;;;;;;;2.22;1.30;;;19.20;37.80;;;;;;4846229;29;20053;-77
2021/01/12 21:25:49;;;;;;;3.00;1.40;;;19.20;37.90;;;;;;4846441;29;20405;-77
2021/01/12 21:28:15;;;;;;;4.28;1.50;;;19.20;37.90;;;;;;4861516;29;20166;-77
2021/01/12 21:30:42;;;;;;;5.00;1.60;;;19.20;38.00;;;;;;4846399;29;20053;-77
2021/01/12 21:33:07;;;;;;;4.38;1.70;;;19.20;37.90;;;;;;4861549;29;20414;-77
2021/01/12 21:35:34;;;;;;;2.63;1.30;;;19.20;37.90;;;;;;4861889;29;20060;-77
2021/01/12 21:38:02;;;;;;;6.20;1.65;;;19.20;38.00;;;;;;4862539;29;20057;-77
2021/01/12 21:40:30;;;;;;;3.30;1.30;;;19.20;37.90;;;;;;4844420;29;20515;-77
2021/01/12 21:42:56;;;;;;;2.55;1.33;;;19.10;37.90;;;;;;4845911;29;20417;-77
2021/01/12 21:45:22;;;;;;;4.43;1.35;;;19.20;38.00;;;;;;4861491;29;20140;-77
2021/01/12 21:47:47;;;;;;;2.03;1.20;;;19.20;38.00;;;;;;4861325;29;20120;-77
2021/01/12 21:50:13;;;;;;;2.10;1.30;;;19.10;37.80;;;;;;4847076;29;20141;-77
2021/01/12 21:52:39;;;;;;;3.65;1.45;;;19.10;37.90;;;;;;4830450;29;20075;-77
2021/01/12 21:55:06;;;;;;;3.00;1.20;;;19.20;38.00;;;;;;4845548;29;20573;-77
2021/01/12 21:57:31;;;;;;;5.32;1.55;;;19.20;37.90;;;;;;4845486;29;20081;-77
2021/01/12 21:59:57;;;;;;;2.55;1.23;;;19.10;37.90;;;;;;4879668;29;20100;-77
2021/01/12 22:02:23;;;;;;;4.43;1.38;;;19.20;38.00;;;;;;4880057;29;20478;-77
2021/01/12 22:04:48;;;;;;;4.15;1.42;;;19.20;37.90;;;;;;4865318;29;20058;-77
2021/01/12 22:07:14;;;;;;;2.25;1.27;;;19.10;37.90;;;;;;4860851;29;20555;-77
2021/01/12 22:09:39;;;;;;;3.80;1.23;;;19.20;38.00;;;;;;4845872;29;20405;-77
2021/01/12 22:12:06;;;;;;;4.00;1.15;;;19.10;37.90;;;;;;4845510;29;20379;-77
2021/01/12 22:14:32;;;;;;;3.00;1.20;;;19.10;37.90;;;;;;4845269;29;20063;-77
2021/01/12 22:16:58;;;;;;;3.65;1.52;;;19.10;37.90;;;;;;4862112;29;20088;-77
2021/01/12 22:19:23;;;;;;;2.95;1.38;;;19.10;37.90;;;;;;4845150;29;20061;-77
2021/01/12 22:21:49;;;;;;;1.83;1.10;;;19.10;37.90;;;;;;4845082;29;20084;-77
2021/01/12 22:24:15;;;;;;;3.42;1.63;;;19.10;37.90;;;;;;4830007;29;20053;-77
2021/01/12 22:26:41;;;;;;;4.35;1.50;;;19.20;38.00;;;;;;4844243;29;20110;-77
2021/01/12 22:29:08;;;;;;;3.15;1.52;;;19.10;38.00;;;;;;4829858;29;20472;-77
2021/01/12 22:31:34;;;;;;;3.20;1.50;;;19.10;37.90;;;;;;4861716;29;20114;-77
2021/01/12 22:34:00;;;;;;;2.40;1.40;;;19.20;38.10;;;;;;4860373;29;20524;-77
2021/01/12 22:36:25;;;;;;;4.60;1.20;;;19.20;38.10;;;;;;4845225;29;20085;-77
2021/01/12 22:38:55;;;;;;;2.78;1.30;;;19.10;38.00;;;;;;4860068;29;20061;-77
2021/01/12 22:41:25;;;;;;;6.05;1.80;;;19.20;37.90;;;;;;4861552;29;20451;-77
2021/01/12 22:43:51;;;;;;;3.17;1.20;;;19.10;37.90;;;;;;4840538;29;20053;-77
2021/01/12 22:46:18;;;;;;;3.33;1.23;;;19.20;38.00;;;;;;4863277;29;20402;-77
2021/01/12 22:48:44;;;;;;;4.00;1.40;;;19.10;37.90;;;;;;4863160;29;20071;-77
2021/01/12 22:51:11;;;;;;;2.15;1.08;;;19.10;37.90;;;;;;4863761;29;20545;-77
2021/01/12 22:53:40;;;;;;;4.40;1.58;;;19.10;37.90;;;;;;4846599;29;20410;-77
2021/01/12 22:56:06;;;;;;;3.28;1.33;;;19.10;38.00;;;;;;4846413;29;20151;-77
2021/01/12 22:58:33;;;;;;;3.60;1.30;;;19.10;37.90;;;;;;4863506;29;20057;-77
2021/01/12 23:00:58;;;;;;;1.98;1.08;;;19.10;38.00;;;;;;4860153;29;20057;-77
2021/01/12 23:03:24;;;;;;;3.45;1.40;;;19.10;38.00;;;;;;4861612;29;20508;-77
2021/01/12 23:05:50;;;;;;;3.33;1.20;;;19.10;38.00;;;;;;4878341;29;20068;-77
2021/01/12 23:08:15;;;;;;;3.53;1.33;;;19.10;38.00;;;;;;4879760;29;20061;-77
2021/01/12 23:10:41;;;;;;;2.03;1.10;;;19.10;38.00;;;;;;4879732;29;20061;-77
2021/01/12 23:13:06;;;;;;;3.15;1.13;;;19.10;37.90;;;;;;4879728;29;20096;-77
2021/01/12 23:15:33;;;;;;;3.78;1.13;;;19.10;38.00;;;;;;4863043;29;20069;-77
2021/01/12 23:18:03;;;;;;;2.83;1.17;;;19.10;37.90;;;;;;4847512;29;20425;-77
2021/01/12 23:20:30;;;;;;;2.17;1.35;;;19.20;38.00;;;;;;4863179;29;20143;-76
2021/01/12 23:22:55;;;;;;;2.85;1.15;;;19.20;38.00;;;;;;4878408;29;20148;-77
2021/01/12 23:25:21;;;;;;;3.80;1.67;;;19.10;38.00;;;;;;4879433;29;20139;-77
2021/01/12 23:27:48;;;;;;;2.33;1.17;;;19.20;38.10;;;;;;4862916;29;20120;-77
2021/01/12 23:30:17;;;;;;;2.60;1.02;;;19.10;38.00;;;;;;4878333;29;20458;-77
2021/01/12 23:32:44;;;;;;;2.00;1.05;;;19.20;38.10;;;;;;4847415;29;20061;-77
2021/01/12 23:35:19;;;;;;;2.42;1.30;;;19.10;37.80;;;;;;4863171;29;20164;-77
2021/01/12 23:37:45;;;;;;;1.92;1.20;;;19.10;38.00;;;;;;4864678;29;20061;-78
2021/01/12 23:40:11;;;;;;;1.95;0.98;;;19.10;38.00;;;;;;4864655;29;20126;-77
2021/01/12 23:42:37;;;;;;;1.80;1.00;;;19.10;38.00;;;;;;4880763;29;20117;-77
2021/01/12 23:45:08;;;;;;;2.35;0.90;;;19.10;38.00;;;;;;4851209;29;20121;-76
2021/01/12 23:47:40;;;;;;;2.53;0.90;;;19.20;38.00;;;;;;4851254;29;20413;-76
2021/01/12 23:50:06;;;;;;;1.75;0.80;;;19.10;37.90;;;;;;4866460;29;20057;-76
2021/01/12 23:52:32;;;;;;;2.75;1.38;;;19.10;38.00;;;;;;4866160;29;20116;-77
2021/01/12 23:54:57;;;;;;;3.45;1.50;;;19.10;38.50;;;;;;4881841;29;20140;-76
2021/01/12 23:57:27;;;;;;;2.25;1.10;;;19.10;38.00;;;;;;4883235;29;20064;-77
2021/01/12 23:59:53;;;;;;;1.42;0.90;;;19.10;38.00;;;;;;4866058;29;20088;-77
